Last 7 Days

Abernathy 3 (AB3)

Hourly Data | America/Los_Angeles
as of 8/25/19 1:32 PM PDT
Date & Time Temp (°F) RH (%) Dew Pt (°F) Wind Spd (mph) Wind Dir (°) Wind Gust (mph) Latest Rain (In) Daily Rain (In) Daily Min Temp (°F) Daily Max Temp (°F)
8/25/19 - 1300 89.5 36 58.6 8.4 SSW | 199 12.1 0.00 0.00 61.7 91.0
8/25/19 - 1200 85.5 39 57.8 8.0 SSW | 193 11.8 0.00 0.00 61.7 88.4
8/25/19 - 1100 81.2 46 58.3 7.7 SSW | 196 11.1 0.00 0.00 61.7 84.2
8/25/19 - 1000 76.2 54 58.4 5.8 S | 188 10.1 0.00 0.00 61.7 78.7
8/25/19 - 0900 69.9 64 57.2 4.0 S | 189 7.8 0.00 0.00 61.7 72.8
8/25/19 - 0800 64.3 75 56.1 1.8 SSW | 204 4.4 0.00 0.00 61.7 67.6
8/25/19 - 0700 62.2 80 56.1 1.2 SSW | 210 4.8 0.00 0.00 61.7 67.6
8/25/19 - 0600 62.6 80 56.3 0.8 SSW | 203 3.8 0.00 0.00 61.7 67.6
8/25/19 - 0500 64.0 78 57.0 3.0 SSW | 201 6.1 0.00 0.00 63.8 67.6
8/25/19 - 0400 64.1 80 57.6 6.3 SSW | 198 11.1 0.00 0.00 63.8 67.6
8/25/19 - 0300 65.1 75 57.0 6.5 SSW | 207 14.2 0.00 0.00 64.5 67.6
8/25/19 - 0200 66.6 69 55.9 5.6 SSW | 207 12.1 0.00 0.00 65.9 67.6
8/25/19 - 0100 66.7 70 56.5 6.1 S | 183 10.8 0.00 0.00 61.0 92.1
8/25/19 - 0000 67.8 67 56.5 3.6 ESE | 122 10.1 0.00 0.00 61.0 92.1
8/24/19 - 2300 70.0 61 55.9 6.1 SSW | 199 10.5 0.00 0.00 61.0 92.1
8/24/19 - 2200 71.2 60 56.9 8.0 SSW | 199 12.5 0.00 0.00 61.0 92.1
8/24/19 - 2100 74.4 53 56.2 5.0 SSW | 211 10.5 0.00 0.00 61.0 92.1
8/24/19 - 2000 79.0 47 57.1 5.1 SSW | 213 10.8 0.00 0.00 61.0 92.1
8/24/19 - 1900 83.2 42 57.7 8.7 SW | 214 14.8 0.00 0.00 61.0 92.1
8/24/19 - 1800 85.9 40 58.6 11.5 SW | 219 16.5 0.00 0.00 61.0 92.1
8/24/19 - 1700 88.4 38 59.8 11.9 SW | 218 18.5 0.00 0.00 61.0 92.1
8/24/19 - 1600 90.2 36 59.7 8.9 SW | 221 14.2 0.00 0.00 61.0 92.1
8/24/19 - 1500 90.9 33 57.5 8.6 WSW | 248 16.2 0.00 0.00 61.0 92.1
8/24/19 - 1400 88.3 34 56.1 8.0 W | 274 15.5 0.00 0.00 61.0 89.9
8/24/19 - 1300 85.4 37 56.2 7.6 W | 267 14.5 0.00 0.00 61.0 87.6
8/24/19 - 1200 83.1 38 54.8 9.5 W | 264 16.2 0.00 0.00 61.0 83.7
8/24/19 - 1100 81.3 39 53.7 6.4 WSW | 258 13.5 0.00 0.00 61.0 82.9
8/24/19 - 1000 74.1 56 57.2 5.0 SW | 214 10.8 0.00 0.00 61.0 79.1
8/24/19 - 0900 69.1 65 56.8 5.4 SSW | 212 10.5 0.00 0.00 61.0 71.9
8/24/19 - 0800 63.7 77 56.5 4.6 SSW | 207 9.5 0.00 0.00 61.0 66.1
8/24/19 - 0700 61.3 82 55.9 6.4 SSW | 210 9.8 0.00 0.00 61.0 65.0
8/24/19 - 0600 62.8 77 55.3 6.4 SSW | 212 11.1 0.00 0.00 61.4 65.0
8/24/19 - 0500 63.5 75 55.6 6.4 SW | 218 13.8 0.00 0.00 62.6 65.0
8/24/19 - 0400 64.1 74 55.8 7.7 SW | 227 12.8 0.00 0.00 62.6 65.0
8/24/19 - 0300 63.6 77 56.4 8.2 SW | 215 13.5 0.00 0.00 62.6 65.0
8/24/19 - 0200 62.9 80 56.8 8.7 SSW | 204 13.2 0.00 0.00 62.6 63.2
8/24/19 - 0100 62.9 84 57.9 9.9 SSW | 208 16.5 0.00 0.00 57.5 87.6
8/24/19 - 0000 63.2 84 58.3 11.4 SW | 217 17.8 0.00 0.00 57.5 87.6
8/23/19 - 2300 64.3 81 58.3 11.2 SW | 222 16.2 0.00 0.00 57.5 87.6
8/23/19 - 2200 65.5 77 58.0 10.0 SW | 228 15.5 0.00 0.00 57.5 87.6
8/23/19 - 2100 68.0 70 57.8 8.5 SW | 227 13.2 0.00 0.00 57.5 87.6
8/23/19 - 2000 70.8 65 58.3 9.8 SW | 216 15.2 0.00 0.00 57.5 87.6
8/23/19 - 1900 75.2 56 58.7 12.6 SW | 222 18.5 0.00 0.00 57.5 87.6
8/23/19 - 1800 80.3 49 59.2 10.6 SW | 217 17.2 0.00 0.00 57.5 87.6
8/23/19 - 1700 83.7 45 60.2 11.8 SSW | 213 18.5 0.00 0.00 57.5 87.6
8/23/19 - 1600 86.7 42 60.6 9.6 SW | 222 13.8 0.00 0.00 57.5 87.6
8/23/19 - 1500 86.2 40 59.2 10.8 SW | 215 16.2 0.00 0.00 57.5 87.4
8/23/19 - 1400 84.6 43 59.4 10.7 SSW | 211 15.8 0.00 0.00 57.5 86.5
8/23/19 - 1300 82.6 45 59.2 12.2 SW | 216 17.8 0.00 0.00 57.5 84.1
8/23/19 - 1200 83.3 43 58.7 11.0 SW | 217 18.2 0.00 0.00 57.5 84.1
8/23/19 - 1100 81.8 46 58.9 8.9 SW | 215 13.5 0.00 0.00 57.5 82.8
8/23/19 - 1000 79.6 48 57.9 6.7 SSW | 209 11.5 0.00 0.00 57.5 81.0
8/23/19 - 0900 73.0 62 59.0 1.3 WSW | 240 5.4 0.00 0.00 57.5 77.8
8/23/19 - 0800 63.2 85 58.7 0.4 N | 350 1.7 0.00 0.00 57.5 67.7
8/23/19 - 0700 57.8 91 55.3 0.6 NNW | 339 2.7 0.00 0.00 57.5 67.4
8/23/19 - 0600 59.4 89 56.2 0.7 NNE | 17 2.7 0.00 0.00 58.0 67.4
8/23/19 - 0500 60.1 88 56.4 0.9 NW | 321 3.1 0.00 0.00 59.7 67.4
8/23/19 - 0400 64.3 80 57.9 0.8 SW | 228 4.8 0.00 0.00 61.3 67.4
8/23/19 - 0300 66.3 76 58.5 2.6 SW | 214 6.1 0.00 0.00 65.9 67.4
8/23/19 - 0200 67.0 74 58.3 1.8 SSW | 200 6.1 0.00 0.00 66.5 67.4
8/23/19 - 0100 68.9 68 57.9 4.2 SSW | 195 7.4 0.00 0.00 67.4 94.6
8/23/19 - 0000 70.2 65 58.0 3.6 S | 182 7.1 0.00 0.00 67.7 94.6
8/22/19 - 2300 73.1 56 56.5 2.1 SSW | 210 5.4 0.00 0.00 67.7 94.6
8/22/19 - 2200 78.8 43 54.6 4.6 SW | 227 10.1 0.00 0.00 67.7 94.6
8/22/19 - 2100 79.7 47 57.8 3.7 SSW | 212 10.1 0.00 0.00 67.7 94.6
8/22/19 - 2000 84.8 42 59.5 5.1 SW | 223 9.1 0.00 0.00 67.7 94.6
8/22/19 - 1900 88.4 38 59.6 8.1 SW | 228 14.2 0.00 0.00 67.7 94.6
8/22/19 - 1800 91.4 37 61.3 10.3 WSW | 237 17.2 0.00 0.00 67.7 94.6
8/22/19 - 1700 93.3 36 62.0 10.5 SW | 234 18.8 0.00 0.00 67.7 94.6
8/22/19 - 1600 94.0 34 61.5 8.1 SW | 216 14.2 0.00 0.00 67.7 94.6
8/22/19 - 1500 92.5 39 63.7 4.8 SSW | 192 11.1 0.00 0.00 67.7 94.0
8/22/19 - 1400 89.7 44 64.6 5.9 SSW | 192 9.8 0.00 0.00 67.7 91.4
8/22/19 - 1300 86.7 47 64.4 6.4 SSW | 197 11.1 0.00 0.00 67.7 88.8
8/22/19 - 1200 83.7 53 65.0 6.9 SSW | 201 11.1 0.00 0.00 67.7 85.1
8/22/19 - 1100 80.0 60 65.1 5.7 SSW | 192 9.5 0.00 0.00 67.7 82.1
8/22/19 - 1000 77.0 68 65.5 4.6 S | 178 8.1 0.00 0.00 67.7 78.0
8/22/19 - 0900 72.8 77 65.3 2.1 SSW | 199 5.1 0.00 0.00 67.7 75.9
8/22/19 - 0800 69.2 86 64.8 0.6 E | 85 2.7 0.00 0.00 67.7 73.6
8/22/19 - 0700 68.7 85 64.0 2.1 SSE | 163 7.4 0.00 0.00 67.7 73.6
8/22/19 - 0600 69.2 84 64.3 4.2 SW | 214 8.1 0.00 0.00 68.7 73.6
8/22/19 - 0500 70.3 82 64.5 5.2 SW | 215 9.5 0.00 0.00 69.9 73.6
8/22/19 - 0400 71.1 79 64.4 5.9 SW | 214 9.5 0.00 0.00 70.2 73.6
8/22/19 - 0300 71.8 76 64.0 5.9 SSW | 211 9.8 0.00 0.00 71.3 73.6
8/22/19 - 0200 73.1 72 63.8 5.9 SW | 222 9.5 0.00 0.00 72.7 73.6
8/22/19 - 0100 74.5 69 63.6 7.1 SW | 232 11.1 0.00 0.00 58.1 92.3
8/22/19 - 0000 74.5 68 63.5 8.3 WSW | 244 14.8 0.00 0.00 58.1 92.3
8/21/19 - 2300 74.9 68 63.7 7.5 SW | 220 14.2 0.00 0.00 58.1 92.3
8/21/19 - 2200 77.1 62 63.2 6.7 SW | 227 10.8 0.00 0.00 58.1 92.3
8/21/19 - 2100 77.9 60 63.1 5.8 SSW | 211 9.5 0.00 0.00 58.1 92.3
8/21/19 - 2000 81.4 52 62.3 5.3 SSW | 206 10.8 0.00 0.00 58.1 92.3
8/21/19 - 1900 86.4 43 61.4 8.8 WSW | 237 18.2 0.00 0.00 58.1 92.3
8/21/19 - 1800 89.4 34 57.0 9.9 SW | 235 17.2 0.00 0.00 58.1 92.3
8/21/19 - 1700 89.9 31 55.2 11.3 SW | 232 18.2 0.00 0.00 58.1 92.3
8/21/19 - 1600 90.6 31 56.2 12.0 SW | 226 18.8 0.00 0.00 58.1 92.3
8/21/19 - 1500 90.9 33 57.4 10.9 SW | 224 17.2 0.00 0.00 58.1 92.3
8/21/19 - 1400 87.9 37 58.7 9.7 SSW | 207 15.2 0.00 0.00 58.1 89.0
8/21/19 - 1300 84.0 43 59.2 7.9 S | 191 12.8 0.00 0.00 58.1 86.9
8/21/19 - 1200 79.8 48 58.2 7.0 S | 191 11.8 0.00 0.00 58.1 81.5
8/21/19 - 1100 76.1 53 57.7 6.7 SSW | 196 10.8 0.00 0.00 58.1 78.2
8/21/19 - 1000 72.1 61 57.8 7.2 SSW | 205 10.5 0.00 0.00 58.1 74.0
8/21/19 - 0900 68.2 69 57.6 5.5 SSW | 210 9.5 0.00 0.00 58.1 69.8
8/21/19 - 0800 61.4 83 56.0 0.9 NW | 319 5.1 0.00 0.00 58.1 65.9
8/21/19 - 0700 60.2 82 54.5 1.3 NW | 304 6.1 0.00 0.00 58.1 64.2
8/21/19 - 0600 62.3 77 55.1 5.0 SW | 214 7.8 0.00 0.00 62.0 64.2
8/21/19 - 0500 62.6 79 55.8 6.2 SW | 216 9.8 0.00 0.00 62.0 64.2
8/21/19 - 0400 63.2 77 56.0 6.8 SW | 216 11.1 0.00 0.00 62.8 64.2
8/21/19 - 0300 63.5 76 55.9 6.6 SW | 218 11.1 0.00 0.00 63.2 64.2
8/21/19 - 0200 63.9 77 56.6 6.1 SSW | 210 10.1 0.00 0.00 63.7 64.2
8/21/19 - 0100 64.5 74 55.9 5.6 SSW | 213 11.1 0.00 0.00 57.3 83.2
8/21/19 - 0000 64.3 73 55.5 6.2 SW | 219 10.5 0.00 0.00 57.3 83.2
8/20/19 - 2300 64.1 73 55.5 7.2 SW | 219 11.5 0.00 0.00 57.3 83.2
8/20/19 - 2200 64.7 72 55.3 7.9 SSW | 209 13.2 0.00 0.00 57.3 83.2
8/20/19 - 2100 67.5 63 54.6 7.4 SW | 217 11.8 0.00 0.00 57.3 83.2
8/20/19 - 2000 71.2 55 54.5 10.1 SW | 234 16.8 0.00 0.00 57.3 83.2
8/20/19 - 1900 75.6 48 54.6 12.1 SW | 236 20.2 0.00 0.00 57.3 83.2
8/20/19 - 1800 79.4 47 57.4 12.8 SW | 231 21.2 0.00 0.00 57.3 83.2
8/20/19 - 1700 80.5 47 58.2 12.2 SW | 228 18.8 0.00 0.00 57.3 83.2
8/20/19 - 1600 82.4 44 58.3 12.1 SW | 224 19.2 0.00 0.00 57.3 83.2
8/20/19 - 1500 81.6 47 59.2 11.0 SW | 220 16.8 0.00 0.00 57.3 82.9
8/20/19 - 1400 78.5 51 59.1 10.2 SW | 219 14.8 0.00 0.00 57.3 80.7
8/20/19 - 1300 74.2 57 58.2 11.5 SW | 216 17.2 0.00 0.00 57.3 76.6
8/20/19 - 1200 70.5 64 57.6 10.3 SW | 232 18.2 0.00 0.00 57.3 73.1
8/20/19 - 1100 67.0 71 57.3 11.7 SW | 218 17.8 0.00 0.00 57.3 68.1
8/20/19 - 1000 64.7 76 57.1 9.8 SW | 217 15.2 0.00 0.00 57.3 66.6
8/20/19 - 0900 62.1 82 56.4 6.5 WSW | 240 12.1 0.00 0.00 57.3 63.6
8/20/19 - 0800 59.4 88 56.0 6.5 WSW | 244 13.5 0.00 0.00 57.3 60.8
8/20/19 - 0700 57.5 92 55.2 5.9 SW | 223 9.8 0.00 0.00 57.3 60.8
8/20/19 - 0600 58.0 90 55.2 5.6 SW | 230 8.8 0.00 0.00 57.6 60.8
8/20/19 - 0500 58.4 90 55.5 6.6 SW | 226 11.8 0.00 0.00 58.2 60.8
8/20/19 - 0400 58.4 89 55.3 7.9 SW | 219 12.1 0.00 0.00 58.2 60.8
8/20/19 - 0300 59.2 86 55.2 8.0 SW | 226 13.5 0.00 0.00 58.8 60.8
8/20/19 - 0200 60.1 84 55.1 6.8 SW | 230 13.2 0.00 0.00 59.3 60.8
8/20/19 - 0100 61.2 81 55.5 8.0 SW | 225 13.8 0.00 0.00 57.2 77.9
8/20/19 - 0000 62.0 76 54.4 8.2 SW | 218 14.2 0.00 0.00 57.2 77.9
8/19/19 - 2300 62.5 76 54.8 7.6 SW | 221 12.5 0.00 0.00 57.2 77.9
8/19/19 - 2200 63.7 74 55.4 6.6 SW | 227 13.2 0.00 0.00 57.2 77.9
8/19/19 - 2100 64.6 76 57.0 9.0 SW | 225 15.5 0.00 0.00 57.2 77.9
8/19/19 - 2000 67.2 70 56.9 10.3 SW | 223 17.5 0.00 0.00 57.2 77.9
8/19/19 - 1900 72.1 60 57.3 10.6 SW | 224 16.5 0.00 0.00 57.2 77.9
8/19/19 - 1800 75.9 54 58.3 10.2 SSW | 212 16.2 0.00 0.00 57.2 77.9
8/19/19 - 1700 76.9 53 58.7 11.6 SSW | 213 17.8 0.00 0.00 57.2 77.9
8/19/19 - 1600 76.2 55 58.7 13.0 SW | 216 19.5 0.00 0.00 57.2 77.0
8/19/19 - 1500 75.4 56 58.5 12.7 SSW | 212 17.5 0.00 0.00 57.2 76.1
8/19/19 - 1400 72.1 61 58.0 12.1 SW | 215 17.8 0.00 0.00 57.2 74.8
8/19/19 - 1300 70.0 65 57.6 13.1 SW | 218 18.8 0.00 0.00 57.2 71.2
8/19/19 - 1200 68.1 67 56.9 11.6 SW | 219 18.2 0.00 0.00 57.2 69.8
8/19/19 - 1100 65.8 71 56.2 10.3 SW | 215 15.5 0.00 0.00 57.2 67.1
8/19/19 - 1000 62.7 77 55.4 8.5 SW | 226 14.2 0.00 0.00 57.2 64.5
8/19/19 - 0900 60.6 82 55.0 7.7 WSW | 237 15.5 0.00 0.00 57.2 61.8
8/19/19 - 0800 58.9 86 54.6 5.9 WSW | 248 12.1 0.00 0.00 57.2 59.8
8/19/19 - 0700 58.0 87 54.2 6.3 WSW | 244 12.1 0.00 0.00 57.2 58.9
8/19/19 - 0600 57.4 89 54.2 5.7 WSW | 256 11.8 0.00 0.00 57.2 58.9
8/19/19 - 0500 57.6 88 54.2 5.0 W | 259 9.8 0.00 0.00 57.4 58.9
8/19/19 - 0400 57.5 88 53.9 5.2 WSW | 248 11.1 0.00 0.00 57.4 58.9
8/19/19 - 0300 58.0 86 53.7 5.7 WSW | 238 11.5 0.00 0.00 57.5 58.9
8/19/19 - 0200 58.5 85 53.9 7.7 SW | 223 12.5 0.00 0.00 58.0 58.9
8/19/19 - 0100 59.3 84 54.4 7.8 SW | 227 14.5 0.00 0.00 56.8 78.1
8/19/19 - 0000 59.9 83 54.9 9.5 SW | 222 17.5 0.00 0.00 56.8 78.1
8/18/19 - 2300 60.4 84 55.5 10.3 SW | 224 19.5 0.00 0.00 56.8 78.1
8/18/19 - 2200 61.4 79 54.8 10.6 SW | 225 19.5 0.00 0.00 56.8 78.1
8/18/19 - 2100 62.3 76 54.7 10.0 SW | 233 16.2 0.00 0.00 56.8 78.1
8/18/19 - 2000 63.8 75 55.9 11.7 SW | 236 19.8 0.00 0.00 56.8 78.1
8/18/19 - 1900 68.2 66 56.6 12.9 WSW | 237 20.5 0.00 0.00 56.8 78.1
8/18/19 - 1800 71.5 60 57.0 14.4 SW | 229 21.9 0.00 0.00 56.8 78.1
8/18/19 - 1700 73.9 56 57.0 15.5 SW | 228 22.2 0.00 0.00 56.8 78.1
8/18/19 - 1600 76.6 50 56.8 13.3 SW | 230 20.2 0.00 0.00 56.8 78.1
8/18/19 - 1500 77.0 49 56.3 13.2 SW | 228 21.2 0.00 0.00 56.8 78.1
8/18/19 - 1400 76.9 47 55.3 12.2 SW | 229 18.2 0.00 0.00 56.8 77.7
Max 94.0 92 65.5 15.5 - 22.2 0.00 0.00 72.7 94.6
Avg 71.9 64 57.8 7.6 - 12.9 0.00 - - -
Min 57.4 31 53.7 0.4 - 1.7 0.00 0.00 56.8 58.9
Total - - - - - - 0.00 - - -
Tip: Bookmark this page for easy future reference